Time;durP1;ratioP1;P1;durP2;ratioP2;P2;SDS_P1;SDS_P2;PMS_P1;PMS_P2;Temp;Humidity;BMP_temperature;BMP_pressure;BME280_temperature;BME280_humidity;BME280_pressure;Samples;Min_cycle;Max_cycle;Signal;HPM_P1;HPM_P2
2022/03/20 00:00:32;;;;;;;22.13;15.37;;;;;;;;;;5054106;28;20217;-64
2022/03/20 00:02:58;;;;;;;19.40;13.47;;;;;;;;;;5053873;28;20184;-63
2022/03/20 00:05:24;;;;;;;16.70;10.93;;;;;;;;;;5053642;28;20179;-62
2022/03/20 00:07:50;;;;;;;19.27;13.80;;;;;;;;;;5036159;28;20185;-62
2022/03/20 00:10:16;;;;;;;18.27;14.37;;;;;;;;;;5053683;28;20673;-62
2022/03/20 00:12:43;;;;;;;20.77;15.40;;;;;;;;;;5035982;28;20344;-62
2022/03/20 00:15:09;;;;;;;18.20;13.50;;;;;;;;;;5035940;28;20647;-62
2022/03/20 00:17:35;;;;;;;19.70;13.90;;;;;;;;;;5053841;28;20185;-62
2022/03/20 00:20:02;;;;;;;23.10;15.20;;;;;;;;;;5053912;28;20202;-62
2022/03/20 00:22:28;;;;;;;18.13;13.63;;;;;;;;;;5035924;28;20189;-62
2022/03/20 00:24:55;;;;;;;21.53;15.83;;;;;;;;;;5055348;28;20608;-62
2022/03/20 00:27:21;;;;;;;19.63;14.53;;;;;;;;;;5054359;28;20179;-62
2022/03/20 00:29:46;;;;;;;18.57;12.43;;;;;;;;;;5053746;28;20564;-61
2022/03/20 00:32:13;;;;;;;23.83;16.00;;;;;;;;;;5053674;28;20210;-62
2022/03/20 00:34:40;;;;;;;19.90;14.73;;;;;;;;;;5053998;28;20242;-62
2022/03/20 00:37:06;;;;;;;19.10;14.10;;;;;;;;;;5053282;28;20700;-62
2022/03/20 00:39:32;;;;;;;17.73;12.80;;;;;;;;;;5035390;28;20284;-62
2022/03/20 00:41:58;;;;;;;20.20;12.53;;;;;;;;;;5053493;28;20193;-62
2022/03/20 00:44:24;;;;;;;18.90;14.80;;;;;;;;;;5053372;28;20206;-62
2022/03/20 00:46:50;;;;;;;23.30;14.23;;;;;;;;;;5053359;28;20182;-62
2022/03/20 00:49:16;;;;;;;19.97;14.57;;;;;;;;;;5053428;28;20194;-62
2022/03/20 00:51:43;;;;;;;20.57;13.07;;;;;;;;;;5035634;28;20231;-62
2022/03/20 00:54:09;;;;;;;24.17;16.63;;;;;;;;;;5035806;28;20201;-62
2022/03/20 00:59:11;;;;;;;21.90;15.47;;;;;;;;;;5056653;28;20260;-63
2022/03/20 01:01:37;;;;;;;22.33;16.07;;;;;;;;;;5058417;28;20518;-63
2022/03/20 01:04:03;;;;;;;20.70;15.03;;;;;;;;;;5058561;28;20281;-64
2022/03/20 01:06:30;;;;;;;21.10;14.20;;;;;;;;;;5040819;28;20635;-63
2022/03/20 01:08:56;;;;;;;24.93;14.67;;;;;;;;;;5057876;28;20253;-62
2022/03/20 01:11:22;;;;;;;22.00;14.20;;;;;;;;;;5057668;28;20639;-62
2022/03/20 01:13:48;;;;;;;24.17;14.60;;;;;;;;;;5056872;28;20202;-63
2022/03/20 01:16:14;;;;;;;18.30;14.43;;;;;;;;;;5057453;28;20182;-63
2022/03/20 01:18:40;;;;;;;22.50;15.37;;;;;;;;;;5057382;28;20256;-63
2022/03/20 01:21:07;;;;;;;20.77;15.63;;;;;;;;;;5039651;28;20178;-65
2022/03/20 01:23:33;;;;;;;20.87;14.27;;;;;;;;;;5057093;28;20231;-63
2022/03/20 01:25:59;;;;;;;21.23;14.40;;;;;;;;;;5057473;28;20187;-62
2022/03/20 01:28:26;;;;;;;20.43;15.63;;;;;;;;;;5039088;28;20217;-64
2022/03/20 01:30:53;;;;;;;21.33;13.77;;;;;;;;;;5057259;28;20206;-63
2022/03/20 01:33:19;;;;;;;19.25;16.08;;;;;;;;;;5055857;28;20412;-63
2022/03/20 01:35:45;;;;;;;21.20;16.83;;;;;;;;;;5055958;28;20382;-63
2022/03/20 01:38:15;;;;;;;24.45;16.30;;;;;;;;;;5055781;28;20382;-64
2022/03/20 01:40:41;;;;;;;21.38;15.27;;;;;;;;;;5038016;28;20396;-64
2022/03/20 01:43:07;;;;;;;22.88;16.73;;;;;;;;;;5055985;28;20385;-62
2022/03/20 01:45:34;;;;;;;22.10;16.50;;;;;;;;;;5055658;28;20389;-64
2022/03/20 01:48:00;;;;;;;22.73;17.23;;;;;;;;;;5055176;28;20408;-64
2022/03/20 01:50:27;;;;;;;21.27;16.47;;;;;;;;;;5056315;28;20385;-64
2022/03/20 01:52:54;;;;;;;21.35;17.10;;;;;;;;;;5055607;28;20436;-63
2022/03/20 01:55:21;;;;;;;25.63;17.23;;;;;;;;;;5037840;28;20420;-65
2022/03/20 01:57:47;;;;;;;20.17;16.23;;;;;;;;;;5056128;28;20381;-63
2022/03/20 02:00:15;;;;;;;20.60;16.55;;;;;;;;;;5037715;28;20382;-64
2022/03/20 02:02:41;;;;;;;21.98;17.38;;;;;;;;;;5055926;28;20386;-64
2022/03/20 02:05:11;;;;;;;20.83;16.63;;;;;;;;;;5037926;28;20403;-64
2022/03/20 02:07:37;;;;;;;22.03;16.93;;;;;;;;;;5037514;28;20461;-63
2022/03/20 02:10:04;;;;;;;19.83;15.27;;;;;;;;;;5054700;28;20434;-62
2022/03/20 02:12:30;;;;;;;23.58;17.77;;;;;;;;;;5055415;28;20409;-62
2022/03/20 02:14:58;;;;;;;23.27;17.08;;;;;;;;;;5055563;28;20417;-63
2022/03/20 02:17:26;;;;;;;21.90;17.85;;;;;;;;;;5055186;28;20407;-63
2022/03/20 02:22:40;;;;;;;23.98;17.83;;;;;;;;;;5055090;28;20380;-64
2022/03/20 02:25:08;;;;;;;21.37;16.77;;;;;;;;;;5055275;28;20468;-63
2022/03/20 02:27:34;;;;;;;22.57;16.37;;;;;;;;;;5055100;28;20381;-63
2022/03/20 02:30:01;;;;;;;24.30;17.55;;;;;;;;;;5055123;28;20381;-65
2022/03/20 02:32:29;;;;;;;22.38;16.40;;;;;;;;;;5055168;28;20407;-63
2022/03/20 02:34:56;;;;;;;20.33;15.27;;;;;;;;;;5036722;28;20409;-64
2022/03/20 02:37:22;;;;;;;21.75;16.92;;;;;;;;;;5036934;28;20396;-65
2022/03/20 02:39:49;;;;;;;23.13;17.58;;;;;;;;;;5054941;28;20858;-64
2022/03/20 02:42:16;;;;;;;22.52;16.50;;;;;;;;;;5055200;28;20780;-64
2022/03/20 02:44:48;;;;;;;23.52;17.55;;;;;;;;;;5054809;28;20382;-64
2022/03/20 02:47:14;;;;;;;24.17;17.97;;;;;;;;;;5054914;28;20425;-68
2022/03/20 02:49:40;;;;;;;24.23;17.40;;;;;;;;;;5054681;28;20381;-63
2022/03/20 02:52:07;;;;;;;26.63;18.35;;;;;;;;;;5054495;28;20719;-63
2022/03/20 02:54:32;;;;;;;24.08;17.90;;;;;;;;;;5054447;28;20411;-64
2022/03/20 02:56:58;;;;;;;24.20;17.42;;;;;;;;;;5054341;28;20389;-65
2022/03/20 02:59:24;;;;;;;23.43;16.53;;;;;;;;;;5054727;28;20381;-65
2022/03/20 03:01:50;;;;;;;25.65;17.25;;;;;;;;;;5054713;28;20383;-63
2022/03/20 03:04:17;;;;;;;20.45;16.58;;;;;;;;;;5054594;28;20405;-63
2022/03/20 03:06:42;;;;;;;20.80;16.67;;;;;;;;;;5054208;28;20369;-63
2022/03/20 03:11:53;;;;;;;22.43;16.80;;;;;;;;;;5054080;28;20377;-64
2022/03/20 03:17:04;;;;;;;18.90;15.60;;;;;;;;;;5054495;28;20754;-64
2022/03/20 03:19:30;;;;;;;22.27;17.30;;;;;;;;;;5053641;28;20378;-64
2022/03/20 03:21:56;;;;;;;22.05;17.17;;;;;;;;;;5035629;28;20393;-63
2022/03/20 03:24:22;;;;;;;20.47;15.60;;;;;;;;;;5054181;28;20382;-64
2022/03/20 03:26:48;;;;;;;19.95;15.77;;;;;;;;;;5035468;28;20397;-63
2022/03/20 03:29:14;;;;;;;21.27;16.48;;;;;;;;;;5053489;28;20389;-63
2022/03/20 03:31:40;;;;;;;22.63;17.50;;;;;;;;;;5052920;28;20396;-64
2022/03/20 03:36:51;;;;;;;22.27;17.35;;;;;;;;;;5053639;28;20385;-62
2022/03/20 03:39:19;;;;;;;22.95;16.30;;;;;;;;;;5053545;28;20796;-63
2022/03/20 03:41:45;;;;;;;20.50;15.82;;;;;;;;;;5035513;28;20388;-64
2022/03/20 03:44:11;;;;;;;22.33;16.83;;;;;;;;;;5035779;28;20539;-64
2022/03/20 03:46:37;;;;;;;22.27;16.83;;;;;;;;;;5053868;28;20942;-63
2022/03/20 03:49:03;;;;;;;22.20;16.42;;;;;;;;;;5053611;28;20432;-63
2022/03/20 03:51:29;;;;;;;21.90;16.20;;;;;;;;;;5053696;28;20411;-63
2022/03/20 03:53:55;;;;;;;22.77;16.92;;;;;;;;;;5036284;28;20480;-64
2022/03/20 03:56:21;;;;;;;21.58;16.67;;;;;;;;;;5053928;28;20491;-63
2022/03/20 03:58:47;;;;;;;20.13;16.30;;;;;;;;;;5053905;28;20856;-63
2022/03/20 04:01:13;;;;;;;19.98;15.65;;;;;;;;;;5054141;28;20435;-65
2022/03/20 04:03:39;;;;;;;22.77;15.90;;;;;;;;;;5054671;28;20868;-64
2022/03/20 04:06:05;;;;;;;21.13;16.98;;;;;;;;;;5053916;28;20918;-62
2022/03/20 04:08:32;;;;;;;23.90;16.80;;;;;;;;;;5035425;28;20389;-63
2022/03/20 04:10:58;;;;;;;22.27;17.17;;;;;;;;;;5053644;28;20377;-64
2022/03/20 04:13:24;;;;;;;21.90;16.17;;;;;;;;;;5053549;28;20500;-63
2022/03/20 04:15:52;;;;;;;22.83;17.05;;;;;;;;;;5053372;28;20919;-63
2022/03/20 04:18:18;;;;;;;24.80;16.33;;;;;;;;;;5054033;28;20401;-63
2022/03/20 04:20:45;;;;;;;23.90;16.05;;;;;;;;;;5053405;28;20378;-65
2022/03/20 04:25:55;;;;;;;21.00;15.55;;;;;;;;;;5053465;28;20904;-63
2022/03/20 04:28:21;;;;;;;20.35;15.88;;;;;;;;;;5053397;28;20377;-63
2022/03/20 04:30:48;;;;;;;21.23;15.68;;;;;;;;;;5053238;28;20405;-64
2022/03/20 04:33:14;;;;;;;20.83;16.17;;;;;;;;;;5037000;28;20659;-64
2022/03/20 04:35:40;;;;;;;21.42;15.90;;;;;;;;;;5057071;28;20389;-63
2022/03/20 04:38:06;;;;;;;19.92;15.60;;;;;;;;;;5039327;28;20443;-65
2022/03/20 04:40:33;;;;;;;21.23;16.13;;;;;;;;;;5057174;28;20480;-67
2022/03/20 04:42:59;;;;;;;19.47;15.07;;;;;;;;;;5039212;28;20381;-65
2022/03/20 04:45:26;;;;;;;20.77;16.42;;;;;;;;;;5057037;28;20857;-64
2022/03/20 04:58:50;;;;;;;21.05;16.30;;;;;;;;;;5056542;28;20443;-64
2022/03/20 05:01:16;;;;;;;19.70;15.80;;;;;;;;;;5056704;28;20784;-65
2022/03/20 05:03:42;;;;;;;21.07;16.07;;;;;;;;;;5056408;28;20807;-64
2022/03/20 05:06:08;;;;;;;21.63;16.38;;;;;;;;;;5056899;28;20377;-64
2022/03/20 05:08:39;;;;;;;21.00;15.73;;;;;;;;;;5056440;28;20383;-64
2022/03/20 05:13:50;;;;;;;20.83;15.77;;;;;;;;;;5056327;28;20411;-65
2022/03/20 05:16:16;;;;;;;20.95;15.90;;;;;;;;;;5056588;28;20403;-63
2022/03/20 05:18:43;;;;;;;20.13;15.73;;;;;;;;;;5056112;28;20844;-64
2022/03/20 05:21:10;;;;;;;21.10;14.77;;;;;;;;;;5057521;28;20178;-64
2022/03/20 05:23:36;;;;;;;17.57;11.83;;;;;;;;;;5039708;28;20194;-62
2022/03/20 05:26:02;;;;;;;19.53;13.90;;;;;;;;;;5039348;28;20186;-62
2022/03/20 05:28:28;;;;;;;19.13;14.60;;;;;;;;;;5057385;28;20579;-65
2022/03/20 05:30:54;;;;;;;19.30;13.80;;;;;;;;;;5057135;28;20178;-63
2022/03/20 05:33:21;;;;;;;21.60;14.20;;;;;;;;;;5057198;28;20209;-63
2022/03/20 05:35:47;;;;;;;18.33;13.40;;;;;;;;;;5057407;28;20175;-63
2022/03/20 05:38:13;;;;;;;21.90;14.43;;;;;;;;;;5057297;28;20202;-64
2022/03/20 05:40:40;;;;;;;20.53;12.93;;;;;;;;;;5057118;28;20174;-64
2022/03/20 05:43:08;;;;;;;19.93;12.10;;;;;;;;;;5038867;28;20190;-63
2022/03/20 05:45:34;;;;;;;23.17;13.47;;;;;;;;;;5038753;28;20505;-62
2022/03/20 05:48:00;;;;;;;22.20;14.23;;;;;;;;;;5057607;28;20439;-64
2022/03/20 05:50:26;;;;;;;26.40;13.47;;;;;;;;;;5056782;28;20262;-64
2022/03/20 05:52:52;;;;;;;17.70;11.50;;;;;;;;;;5057125;28;20206;-64
2022/03/20 05:55:19;;;;;;;25.80;14.30;;;;;;;;;;5056933;28;20527;-63
2022/03/20 05:58:03;;;;;;;20.67;14.67;;;;;;;;;;5038682;28;20225;-63
2022/03/20 06:00:29;;;;;;;16.80;12.43;;;;;;;;;;5056846;28;20197;-64
2022/03/20 06:02:55;;;;;;;20.67;13.70;;;;;;;;;;5056401;28;20183;-63
2022/03/20 06:05:24;;;;;;;16.70;10.43;;;;;;;;;;5056347;28;20190;-64
2022/03/20 06:07:51;;;;;;;23.20;14.50;;;;;;;;;;5056610;28;20203;-63
2022/03/20 06:10:18;;;;;;;31.73;16.03;;;;;;;;;;5038444;28;20424;-64
2022/03/20 06:12:44;;;;;;;19.80;13.07;;;;;;;;;;5038643;28;20187;-64
2022/03/20 06:15:10;;;;;;;24.17;14.20;;;;;;;;;;5056787;28;20170;-64
2022/03/20 06:17:45;;;;;;;22.50;14.37;;;;;;;;;;5038360;28;20194;-64
2022/03/20 06:20:12;;;;;;;21.57;13.53;;;;;;;;;;5056617;28;20280;-64
2022/03/20 06:22:38;;;;;;;21.53;14.87;;;;;;;;;;5038429;28;20175;-64
2022/03/20 06:25:09;;;;;;;16.70;12.07;;;;;;;;;;5056985;28;20185;-63
2022/03/20 06:27:45;;;;;;;20.00;13.07;;;;;;;;;;5056280;28;20202;-63
2022/03/20 06:30:13;;;;;;;20.20;12.93;;;;;;;;;;5056237;28;20679;-63
2022/03/20 06:32:39;;;;;;;14.10;10.93;;;;;;;;;;5038162;28;20178;-63
2022/03/20 06:35:05;;;;;;;18.43;12.63;;;;;;;;;;5038186;28;20658;-64
2022/03/20 06:37:38;;;;;;;23.97;14.07;;;;;;;;;;5055955;28;20186;-63
2022/03/20 06:40:05;;;;;;;18.70;12.77;;;;;;;;;;5056146;28;20181;-63
2022/03/20 06:42:31;;;;;;;16.00;11.03;;;;;;;;;;5056086;28;20174;-64
2022/03/20 06:44:59;;;;;;;20.83;14.13;;;;;;;;;;5055757;28;20332;-64
2022/03/20 06:47:26;;;;;;;16.70;11.63;;;;;;;;;;5038511;28;20247;-63
2022/03/20 06:49:53;;;;;;;18.43;12.60;;;;;;;;;;5055666;28;20167;-63
2022/03/20 06:52:20;;;;;;;16.53;11.23;;;;;;;;;;5055412;28;20544;-62
2022/03/20 06:54:46;;;;;;;20.67;12.10;;;;;;;;;;5037529;28;20217;-64
2022/03/20 06:57:13;;;;;;;20.30;14.03;;;;;;;;;;5055142;28;20305;-64
2022/03/20 06:59:39;;;;;;;19.40;14.33;;;;;;;;;;5055816;28;20155;-64
2022/03/20 07:02:05;;;;;;;21.90;13.50;;;;;;;;;;5037627;28;20552;-62
2022/03/20 07:04:31;;;;;;;22.03;13.47;;;;;;;;;;5055419;28;20258;-64
2022/03/20 07:06:59;;;;;;;18.10;12.97;;;;;;;;;;5055967;28;20619;-63
2022/03/20 07:09:25;;;;;;;16.53;10.57;;;;;;;;;;5055822;28;20250;-64
2022/03/20 07:11:51;;;;;;;17.57;11.73;;;;;;;;;;5055909;28;20613;-65
2022/03/20 07:14:18;;;;;;;18.20;11.10;;;;;;;;;;5055198;28;20206;-64
2022/03/20 07:16:44;;;;;;;18.07;12.60;;;;;;;;;;5055461;28;20174;-64
2022/03/20 07:19:11;;;;;;;17.10;12.73;;;;;;;;;;5055193;28;20181;-64
2022/03/20 07:21:37;;;;;;;14.60;10.63;;;;;;;;;;5054940;28;20202;-64
2022/03/20 07:24:03;;;;;;;20.10;12.73;;;;;;;;;;5055021;28;20210;-63
2022/03/20 07:29:32;;;;;;;16.43;11.90;;;;;;;;;;5055194;28;20220;-63
2022/03/20 07:32:03;;;;;;;19.13;13.83;;;;;;;;;;5054943;28;20622;-64
2022/03/20 07:34:29;;;;;;;18.47;12.13;;;;;;;;;;5037012;28;20213;-64
2022/03/20 07:36:55;;;;;;;17.40;12.50;;;;;;;;;;5054904;28;20194;-64
2022/03/20 07:39:21;;;;;;;19.00;13.23;;;;;;;;;;5037086;28;20182;-63
2022/03/20 07:41:47;;;;;;;23.33;12.90;;;;;;;;;;5037295;28;20225;-64
2022/03/20 07:44:13;;;;;;;17.50;12.97;;;;;;;;;;5037210;28;20643;-64
2022/03/20 07:46:40;;;;;;;19.93;12.67;;;;;;;;;;5037288;28;20273;-64
2022/03/20 07:49:07;;;;;;;18.20;13.23;;;;;;;;;;5054932;28;20270;-63
2022/03/20 07:51:33;;;;;;;15.30;10.80;;;;;;;;;;5054536;28;20174;-64
2022/03/20 07:53:59;;;;;;;16.93;12.43;;;;;;;;;;5036993;28;20198;-64
2022/03/20 07:56:28;;;;;;;19.17;12.23;;;;;;;;;;5054592;28;20190;-64
2022/03/20 07:58:55;;;;;;;22.87;14.07;;;;;;;;;;5036571;28;20581;-63
2022/03/20 08:01:21;;;;;;;21.70;14.77;;;;;;;;;;5036808;28;20665;-63
2022/03/20 08:03:48;;;;;;;19.23;13.37;;;;;;;;;;5036429;28;20182;-64
2022/03/20 08:06:15;;;;;;;21.70;14.67;;;;;;;;;;5054371;28;20317;-64
2022/03/20 08:08:42;;;;;;;22.53;14.77;;;;;;;;;;5035806;28;20198;-63
2022/03/20 08:11:09;;;;;;;19.97;12.07;;;;;;;;;;5054859;28;20189;-63
2022/03/20 08:13:35;;;;;;;22.70;15.53;;;;;;;;;;5036895;28;20225;-63
2022/03/20 08:16:01;;;;;;;21.00;13.67;;;;;;;;;;5036965;28;20271;-62
2022/03/20 08:18:28;;;;;;;21.73;14.00;;;;;;;;;;5036664;28;20209;-64
2022/03/20 08:20:54;;;;;;;23.90;15.07;;;;;;;;;;5054791;28;20179;-64
2022/03/20 08:23:20;;;;;;;20.13;14.10;;;;;;;;;;5054494;28;20205;-64
2022/03/20 08:25:47;;;;;;;18.87;13.83;;;;;;;;;;5054683;28;20174;-62
2022/03/20 08:28:13;;;;;;;21.47;15.40;;;;;;;;;;5037036;28;20670;-63
2022/03/20 08:30:41;;;;;;;22.37;14.67;;;;;;;;;;5036941;28;20186;-62
2022/03/20 08:33:07;;;;;;;17.60;11.87;;;;;;;;;;5054174;28;20285;-62
2022/03/20 08:35:33;;;;;;;20.90;15.93;;;;;;;;;;5054620;28;20198;-62
2022/03/20 08:37:59;;;;;;;22.30;14.00;;;;;;;;;;5054517;28;20226;-64
2022/03/20 08:40:26;;;;;;;21.03;14.30;;;;;;;;;;5036535;28;20197;-63
2022/03/20 08:42:53;;;;;;;20.70;13.53;;;;;;;;;;5054442;28;20189;-63
2022/03/20 08:45:20;;;;;;;19.33;13.67;;;;;;;;;;5054859;28;20622;-64
2022/03/20 08:47:46;;;;;;;23.50;16.50;;;;;;;;;;5054175;28;20232;-63
2022/03/20 08:50:14;;;;;;;21.30;12.67;;;;;;;;;;5054708;28;20189;-64
2022/03/20 08:52:40;;;;;;;24.57;16.60;;;;;;;;;;5054149;28;20183;-63
2022/03/20 08:55:10;;;;;;;21.70;15.97;;;;;;;;;;5054876;28;20174;-62
2022/03/20 08:57:44;;;;;;;23.77;16.93;;;;;;;;;;5054194;28;20673;-62
2022/03/20 09:00:11;;;;;;;24.40;16.03;;;;;;;;;;5053894;28;20199;-63
2022/03/20 09:02:37;;;;;;;23.73;16.83;;;;;;;;;;5054213;28;20189;-61
2022/03/20 09:05:06;;;;;;;19.90;13.67;;;;;;;;;;5054431;28;20253;-63
2022/03/20 09:07:33;;;;;;;25.93;17.40;;;;;;;;;;5054598;28;20662;-63
2022/03/20 09:09:59;;;;;;;23.93;15.87;;;;;;;;;;5036144;28;20206;-63
2022/03/20 09:12:25;;;;;;;21.43;16.00;;;;;;;;;;5054038;28;20178;-63
2022/03/20 09:14:51;;;;;;;22.80;15.57;;;;;;;;;;5036147;28;20213;-63
2022/03/20 09:20:02;;;;;;;25.33;15.90;;;;;;;;;;5073935;22;20249;-61
2022/03/20 09:22:28;;;;;;;25.00;16.20;;;;;;;;;;5046083;28;20215;-62
2022/03/20 09:24:54;;;;;;;23.57;17.43;;;;;;;;;;5048528;28;20193;-62
2022/03/20 09:27:22;;;;;;;24.77;17.10;;;;;;;;;;5047171;28;20273;-62
2022/03/20 09:29:48;;;;;;;23.37;17.63;;;;;;;;;;5041139;28;20213;-62
2022/03/20 09:32:14;;;;;;;24.50;17.03;;;;;;;;;;5040239;28;20273;-61
2022/03/20 09:34:40;;;;;;;25.63;17.53;;;;;;;;;;5039034;28;20214;-62
2022/03/20 09:37:06;;;;;;;23.63;17.00;;;;;;;;;;5038808;28;20178;-62
2022/03/20 09:39:32;;;;;;;28.77;17.47;;;;;;;;;;5056465;28;20175;-62
2022/03/20 09:41:59;;;;;;;24.33;17.80;;;;;;;;;;5057335;28;20261;-62
2022/03/20 09:44:25;;;;;;;24.50;13.60;;;;;;;;;;5038615;28;20221;-62
2022/03/20 09:46:51;;;;;;;25.23;16.33;;;;;;;;;;5038494;28;20236;-62
2022/03/20 09:49:19;;;;;;;27.57;18.07;;;;;;;;;;5056154;28;20205;-62
2022/03/20 09:51:45;;;;;;;24.33;18.60;;;;;;;;;;5056701;28;20202;-62
2022/03/20 09:54:13;;;;;;;25.20;17.57;;;;;;;;;;5056336;28;20685;-62
2022/03/20 09:56:41;;;;;;;23.13;17.03;;;;;;;;;;5038293;28;20273;-62
2022/03/20 09:59:07;;;;;;;27.27;18.43;;;;;;;;;;5038192;28;20707;-62
2022/03/20 10:01:35;;;;;;;26.77;18.00;;;;;;;;;;5038320;28;20578;-62
2022/03/20 10:04:07;;;;;;;28.50;19.20;;;;;;;;;;5038542;28;20185;-62
2022/03/20 10:06:35;;;;;;;28.73;19.47;;;;;;;;;;5038504;28;20182;-62
2022/03/20 10:09:06;;;;;;;25.80;17.50;;;;;;;;;;5056033;28;20182;-62
2022/03/20 10:11:32;;;;;;;25.97;18.70;;;;;;;;;;5056224;28;20202;-63
2022/03/20 10:14:09;;;;;;;24.60;17.67;;;;;;;;;;5056704;28;20204;-62
2022/03/20 10:16:39;;;;;;;23.97;18.67;;;;;;;;;;5038639;28;20328;-63
2022/03/20 10:19:23;;;;;;;29.07;19.70;;;;;;;;;;5038235;28;20183;-63
2022/03/20 10:21:54;;;;;;;27.87;17.57;;;;;;;;;;5055786;28;20566;-63
2022/03/20 10:24:22;;;;;;;25.87;19.13;;;;;;;;;;5055908;28;20174;-63
2022/03/20 10:27:00;;;;;;;23.27;16.07;;;;;;;;;;5055825;28;20175;-63
2022/03/20 10:29:27;;;;;;;25.70;17.70;;;;;;;;;;5037753;28;20527;-63
2022/03/20 10:31:54;;;;;;;28.17;18.17;;;;;;;;;;5054955;28;20666;-62
2022/03/20 10:34:20;;;;;;;27.43;18.63;;;;;;;;;;5038942;28;20293;-62
2022/03/20 10:36:47;;;;;;;26.00;18.27;;;;;;;;;;5055836;28;20179;-62
2022/03/20 10:39:15;;;;;;;26.37;19.43;;;;;;;;;;5055738;28;20696;-62
2022/03/20 10:41:41;;;;;;;24.40;17.63;;;;;;;;;;5055516;28;20199;-62
2022/03/20 10:44:18;;;;;;;26.57;19.20;;;;;;;;;;5055861;28;20182;-62
2022/03/20 10:46:54;;;;;;;27.17;19.23;;;;;;;;;;5037826;28;20536;-62
2022/03/20 10:49:21;;;;;;;24.80;18.57;;;;;;;;;;5055715;28;20200;-62
2022/03/20 10:52:00;;;;;;;24.07;18.47;;;;;;;;;;5055742;28;20203;-62
2022/03/20 10:54:38;;;;;;;25.37;18.27;;;;;;;;;;5055766;28;20252;-63
2022/03/20 10:57:06;;;;;;;28.13;19.63;;;;;;;;;;5056001;28;20623;-62
2022/03/20 10:59:33;;;;;;;25.60;17.73;;;;;;;;;;5055865;28;20170;-62
2022/03/20 11:01:59;;;;;;;27.60;19.27;;;;;;;;;;5055469;28;20175;-62
2022/03/20 11:04:25;;;;;;;26.67;20.40;;;;;;;;;;5037210;28;20182;-62
2022/03/20 11:06:54;;;;;;;28.03;21.20;;;;;;;;;;5037187;28;20417;-62
2022/03/20 11:09:20;;;;;;;25.97;19.17;;;;;;;;;;5055830;28;20232;-62
2022/03/20 11:11:51;;;;;;;28.90;21.20;;;;;;;;;;5054905;28;20198;-62
2022/03/20 11:14:19;;;;;;;28.63;20.13;;;;;;;;;;5037265;28;20198;-62
2022/03/20 11:16:48;;;;;;;26.57;18.00;;;;;;;;;;5037194;28;20202;-62
2022/03/20 11:19:15;;;;;;;28.33;20.47;;;;;;;;;;5055122;28;20178;-61
2022/03/20 11:21:44;;;;;;;28.63;20.60;;;;;;;;;;5054846;28;20221;-62
2022/03/20 11:24:11;;;;;;;27.03;19.50;;;;;;;;;;5055148;28;20179;-62
2022/03/20 11:26:40;;;;;;;27.67;19.80;;;;;;;;;;5054777;28;20186;-62
2022/03/20 11:29:07;;;;;;;28.93;20.10;;;;;;;;;;5054882;28;20175;-63
2022/03/20 11:31:34;;;;;;;28.93;20.27;;;;;;;;;;5037249;28;20272;-61
2022/03/20 11:34:02;;;;;;;26.53;21.10;;;;;;;;;;5055110;28;20530;-62
2022/03/20 11:36:27;;;;;;;30.83;21.33;;;;;;;;;;5054577;28;20591;-62
2022/03/20 11:39:09;;;;;;;32.77;21.73;;;;;;;;;;5054881;28;20253;-62
2022/03/20 11:41:35;;;;;;;27.73;21.47;;;;;;;;;;5036228;28;20198;-62
2022/03/20 11:44:20;;;;;;;30.83;22.13;;;;;;;;;;5036419;28;20209;-62
2022/03/20 11:46:46;;;;;;;29.00;21.00;;;;;;;;;;5058487;28;20177;-63
2022/03/20 11:49:19;;;;;;;27.13;21.67;;;;;;;;;;5054607;28;20183;-62
2022/03/20 11:52:03;;;;;;;27.17;20.97;;;;;;;;;;5036273;28;20209;-62
2022/03/20 11:54:30;;;;;;;29.40;21.83;;;;;;;;;;5053993;28;20202;-63
2022/03/20 11:56:56;;;;;;;29.08;24.17;;;;;;;;;;5034986;28;20397;-63
2022/03/20 11:59:22;;;;;;;;;;;;;;;;;;5055176;28;20025;-62
2022/03/20 12:01:48;;;;;;;;;;;;;;;;;;5054513;28;20353;-63
2022/03/20 12:04:14;;;;;;;;;;;;;;;;;;5054545;28;20352;-62
2022/03/20 12:06:39;;;;;;;;;;;;;;;;;;5054409;28;19909;-62
2022/03/20 12:09:05;;;;;;;;;;;;;;;;;;5054636;28;20353;-62
2022/03/20 12:11:31;;;;;;;;;;;;;;;;;;5054024;28;19915;-61
2022/03/20 12:13:57;;;;;;;;;;;;;;;;;;5054200;28;20354;-61
2022/03/20 12:16:23;;;;;;;;;;;;;;;;;;5054218;28;19905;-62
2022/03/20 12:19:09;;;;;;;35.38;27.42;;;;;;;;;;5034719;28;20402;-62
2022/03/20 12:21:53;;;;;;;33.53;26.03;;;;;;;;;;5053606;28;20206;-62
2022/03/20 12:24:37;;;;;;;38.27;24.50;;;;;;;;;;5053633;28;20171;-62
2022/03/20 12:27:29;;;;;;;33.73;23.80;;;;;;;;;;5054181;28;20166;-61
2022/03/20 12:29:58;;;;;;;33.23;23.07;;;;;;;;;;5055267;28;20187;-62
2022/03/20 12:32:24;;;;;;;33.40;24.47;;;;;;;;;;5054879;28;20178;-61
2022/03/20 12:34:57;;;;;;;31.33;24.67;;;;;;;;;;5057410;28;20221;-60
2022/03/20 12:37:33;;;;;;;31.00;23.93;;;;;;;;;;5061366;28;20224;-61
2022/03/20 12:40:08;;;;;;;34.73;23.77;;;;;;;;;;5046797;28;20194;-61
2022/03/20 12:42:36;;;;;;;32.40;23.37;;;;;;;;;;5062984;28;20174;-60
2022/03/20 12:45:03;;;;;;;37.13;25.23;;;;;;;;;;5054076;28;20174;-59
2022/03/20 12:47:29;;;;;;;30.67;22.30;;;;;;;;;;5054468;28;20265;-60
2022/03/20 12:50:07;;;;;;;36.87;26.33;;;;;;;;;;5043745;28;20202;-59
2022/03/20 12:52:33;;;;;;;38.47;27.00;;;;;;;;;;5058028;28;20178;-59
2022/03/20 12:55:00;;;;;;;33.33;25.67;;;;;;;;;;5057444;28;20198;-59
2022/03/20 12:57:47;;;;;;;38.20;26.13;;;;;;;;;;5039773;28;20185;-59
2022/03/20 13:00:13;;;;;;;34.10;26.03;;;;;;;;;;5057809;28;20217;-61
2022/03/20 13:03:00;;;;;;;39.17;28.00;;;;;;;;;;5039587;28;20186;-62
2022/03/20 13:05:30;;;;;;;39.67;28.23;;;;;;;;;;5029754;28;20190;-60
2022/03/20 13:07:56;;;;;;;38.13;27.70;;;;;;;;;;5057769;28;20185;-63
2022/03/20 13:10:23;;;;;;;42.17;29.53;;;;;;;;;;5058892;28;20202;-62
2022/03/20 13:13:01;;;;;;;39.40;30.37;;;;;;;;;;5059345;28;20672;-63
2022/03/20 13:15:46;;;;;;;35.83;29.63;;;;;;;;;;5057454;28;20248;-62
2022/03/20 13:18:13;;;;;;;44.23;29.13;;;;;;;;;;5039062;28;20166;-62
2022/03/20 13:20:41;;;;;;;38.83;29.70;;;;;;;;;;5056623;28;20238;-62
2022/03/20 13:23:08;;;;;;;43.50;32.63;;;;;;;;;;5057400;28;20207;-62
2022/03/20 13:25:37;;;;;;;43.70;32.07;;;;;;;;;;5057206;28;20291;-62
2022/03/20 13:28:04;;;;;;;47.33;34.87;;;;;;;;;;5057551;28;20178;-62
2022/03/20 13:30:38;;;;;;;48.23;33.00;;;;;;;;;;5056854;28;20194;-62
2022/03/20 13:33:05;;;;;;;48.70;35.03;;;;;;;;;;5056836;28;20208;-62
2022/03/20 13:35:31;;;;;;;46.27;35.57;;;;;;;;;;5039154;28;20182;-62
2022/03/20 13:37:58;;;;;;;50.77;37.00;;;;;;;;;;5038820;28;20178;-62
2022/03/20 13:40:25;;;;;;;52.87;38.03;;;;;;;;;;5057057;28;20304;-62
2022/03/20 13:42:52;;;;;;;52.40;36.97;;;;;;;;;;5057148;28;20179;-62
2022/03/20 13:45:18;;;;;;;54.03;38.17;;;;;;;;;;5038687;28;20228;-62
2022/03/20 13:47:44;;;;;;;52.20;36.47;;;;;;;;;;5057021;28;20200;-61
2022/03/20 13:50:11;;;;;;;55.17;38.57;;;;;;;;;;5056247;28;20217;-62
2022/03/20 13:52:38;;;;;;;50.73;36.97;;;;;;;;;;5056467;28;20181;-61
2022/03/20 13:55:09;;;;;;;52.30;39.03;;;;;;;;;;5038910;28;20595;-62
2022/03/20 13:57:48;;;;;;;54.70;41.50;;;;;;;;;;5056536;28;20182;-62
2022/03/20 14:00:14;;;;;;;61.63;45.87;;;;;;;;;;5038308;28;20202;-62
2022/03/20 14:02:48;;;;;;;50.50;35.30;;;;;;;;;;5055999;28;20666;-62
2022/03/20 14:05:24;;;;;;;48.90;35.97;;;;;;;;;;5055015;28;20179;-62
2022/03/20 14:08:02;;;;;;;52.27;37.10;;;;;;;;;;5056047;28;20644;-62
2022/03/20 14:10:28;;;;;;;50.07;36.63;;;;;;;;;;5056110;28;20239;-62
2022/03/20 14:12:53;;;;;;;52.00;36.47;;;;;;;;;;5055750;28;20181;-62
2022/03/20 14:15:20;;;;;;;51.37;37.87;;;;;;;;;;5056280;28;20174;-63
2022/03/20 14:17:48;;;;;;;44.53;33.87;;;;;;;;;;5038250;28;20174;-62
2022/03/20 14:20:27;;;;;;;47.73;35.07;;;;;;;;;;5055618;28;20206;-62
2022/03/20 14:22:54;;;;;;;52.20;38.67;;;;;;;;;;5056531;28;20763;-63
2022/03/20 14:25:41;;;;;;;46.93;34.17;;;;;;;;;;5056840;28;20178;-62
2022/03/20 14:28:15;;;;;;;46.93;37.77;;;;;;;;;;5037944;28;20215;-63
2022/03/20 14:41:55;;;;;;;48.80;34.13;;;;;;;;;;5055950;28;20233;-62
2022/03/20 14:44:26;;;;;;;42.90;34.80;;;;;;;;;;5055918;28;20166;-63
2022/03/20 14:46:54;;;;;;;45.23;34.03;;;;;;;;;;5055715;28;20183;-62
2022/03/20 14:49:20;;;;;;;49.93;35.93;;;;;;;;;;5056487;28;20627;-63
2022/03/20 14:51:47;;;;;;;46.97;35.17;;;;;;;;;;5037687;28;20774;-62
2022/03/20 14:54:13;;;;;;;43.47;33.90;;;;;;;;;;5037613;28;20583;-62
2022/03/20 14:56:39;;;;;;;44.57;33.47;;;;;;;;;;5056163;28;20305;-62
2022/03/20 14:59:08;;;;;;;42.73;32.50;;;;;;;;;;5038081;28;20178;-62
2022/03/20 15:01:39;;;;;;;39.33;32.87;;;;;;;;;;5055574;28;20201;-62
2022/03/20 15:04:06;;;;;;;44.73;33.73;;;;;;;;;;5055883;28;20625;-62
2022/03/20 15:06:32;;;;;;;44.00;32.93;;;;;;;;;;5055821;28;20224;-62
2022/03/20 15:11:42;;;;;;;39.93;29.53;;;;;;;;;;5055330;28;20217;-62
2022/03/20 15:14:08;;;;;;;37.97;28.70;;;;;;;;;;5036994;28;20198;-62